createdAt,value
2023-01-08T00:01:28.841Z,29.00
2023-01-08T00:03:56.624Z,30.15
2023-01-08T00:06:24.800Z,28.15
2023-01-08T00:08:52.601Z,28.75
2023-01-08T00:11:22.121Z,28.70
2023-01-08T00:13:49.434Z,27.90
2023-01-08T00:16:19.607Z,27.80
2023-01-08T00:18:47.731Z,25.72
2023-01-08T00:21:15.458Z,23.25
2023-01-08T00:23:43.359Z,22.58
2023-01-08T00:26:11.773Z,23.85
2023-01-08T00:28:40.401Z,23.27
2023-01-08T00:31:10.978Z,23.70
2023-01-08T00:33:40.334Z,20.40
2023-01-08T00:36:11.471Z,23.32
2023-01-08T00:38:39.278Z,20.12
2023-01-08T00:41:07.395Z,18.57
2023-01-08T00:43:35.323Z,19.23
2023-01-08T00:46:03.432Z,22.05
2023-01-08T00:48:33.111Z,21.55
2023-01-08T00:51:02.891Z,20.52
2023-01-08T00:53:30.790Z,19.60
2023-01-08T00:56:04.544Z,21.97
2023-01-08T00:58:32.635Z,21.17
2023-01-08T01:01:00.432Z,20.20
2023-01-08T01:03:28.113Z,19.50
2023-01-08T01:06:07.917Z,19.17
2023-01-08T01:08:35.509Z,19.98
2023-01-08T01:11:11.037Z,20.15
2023-01-08T01:13:38.773Z,19.62
2023-01-08T01:16:06.909Z,19.27
2023-01-08T01:18:34.627Z,20.10
2023-01-08T01:21:03.203Z,21.07
2023-01-08T01:23:31.964Z,26.20
2023-01-08T01:25:59.822Z,27.10
2023-01-08T01:28:27.305Z,28.10
2023-01-08T01:30:57.163Z,25.35
2023-01-08T01:33:24.856Z,23.80
2023-01-08T01:36:02.960Z,23.10
2023-01-08T01:38:30.833Z,23.83
2023-01-08T01:40:59.277Z,24.10
2023-01-08T01:43:42.494Z,23.98
2023-01-08T01:46:38.503Z,23.65
2023-01-08T01:49:17.737Z,24.25
2023-01-08T01:51:53.286Z,22.32
2023-01-08T01:56:49.328Z,20.75
2023-01-08T01:59:21.416Z,21.85
2023-01-08T02:01:50.226Z,22.35
2023-01-08T02:04:19.791Z,22.73
2023-01-08T02:07:05.069Z,20.92
2023-01-08T02:10:11.870Z,20.43
2023-01-08T02:12:57.241Z,21.10
2023-01-08T02:15:59.040Z,23.38
2023-01-08T02:18:50.336Z,23.55
2023-01-08T02:21:55.371Z,21.80
2023-01-08T02:24:48.629Z,21.50
2023-01-08T02:27:18.487Z,22.02
2023-01-08T02:29:48.048Z,22.50
2023-01-08T02:32:17.805Z,22.50
2023-01-08T02:34:45.565Z,22.52
2023-01-08T02:37:14.076Z,23.35
2023-01-08T02:40:02.673Z,23.50
2023-01-08T02:42:56.354Z,22.80
2023-01-08T02:45:47.434Z,24.40
2023-01-08T02:48:32.181Z,23.40
2023-01-08T02:51:07.430Z,24.15
2023-01-08T02:56:11.050Z,24.52
2023-01-08T02:58:40.988Z,24.37
2023-01-08T03:01:12.206Z,21.93
2023-01-08T03:03:44.143Z,23.35
2023-01-08T03:06:16.189Z,22.58
2023-01-08T03:08:48.153Z,21.93
2023-01-08T03:11:20.764Z,22.10
2023-01-08T03:13:59.821Z,22.65
2023-01-08T03:16:42.129Z,22.82
2023-01-08T03:19:42.452Z,22.48
2023-01-08T03:22:13.970Z,22.73
2023-01-08T03:24:43.947Z,24.95
2023-01-08T03:27:16.738Z,27.50
2023-01-08T03:29:47.578Z,27.98
2023-01-08T03:32:17.615Z,26.00
2023-01-08T03:34:48.705Z,25.12
2023-01-08T03:37:21.917Z,22.67
2023-01-08T03:40:13.250Z,23.90
2023-01-08T03:42:41.284Z,23.45
2023-01-08T03:45:09.667Z,23.80
2023-01-08T03:47:39.723Z,23.98
2023-01-08T03:50:15.668Z,24.15
2023-01-08T03:52:43.540Z,22.82
2023-01-08T03:55:11.369Z,23.85
2023-01-08T03:57:38.965Z,21.87
2023-01-08T04:00:07.820Z,22.32
2023-01-08T04:02:35.689Z,20.20
2023-01-08T04:05:03.932Z,21.60
2023-01-08T04:07:31.624Z,19.27
2023-01-08T04:09:59.288Z,21.65
2023-01-08T04:12:27.124Z,20.20
2023-01-08T04:14:54.750Z,19.48
2023-01-08T04:17:22.275Z,18.98
2023-01-08T04:19:49.947Z,18.85
2023-01-08T04:22:17.921Z,17.10
2023-01-08T04:24:45.800Z,17.27
2023-01-08T04:27:13.488Z,16.48
2023-01-08T04:29:41.281Z,16.23
2023-01-08T04:32:08.952Z,16.42
2023-01-08T04:34:36.729Z,15.18
2023-01-08T04:37:04.614Z,14.23
2023-01-08T04:39:32.444Z,14.00
2023-01-08T04:42:00.137Z,14.18
2023-01-08T04:44:27.959Z,13.98
2023-01-08T04:46:55.509Z,13.40
2023-01-08T04:49:23.163Z,12.95
2023-01-08T04:51:50.695Z,14.15
2023-01-08T04:54:18.523Z,13.98
2023-01-08T04:56:46.121Z,12.68
2023-01-08T04:59:13.960Z,13.43
2023-01-08T05:01:41.597Z,15.48
2023-01-08T05:04:11.059Z,17.05
2023-01-08T05:06:40.604Z,16.52
2023-01-08T05:09:08.876Z,15.80
2023-01-08T05:11:37.245Z,15.28
2023-01-08T05:14:04.888Z,13.53
2023-01-08T05:16:32.629Z,15.18
2023-01-08T05:19:00.265Z,14.83
2023-01-08T05:21:28.160Z,15.70
2023-01-08T05:23:56.089Z,16.25
2023-01-08T05:26:23.844Z,16.77
2023-01-08T05:28:52.421Z,17.87
2023-01-08T05:31:20.366Z,18.35
2023-01-08T05:33:48.190Z,29.75
2023-01-08T05:36:15.844Z,51.42
2023-01-08T05:38:43.461Z,34.05
2023-01-08T05:41:11.631Z,32.15
2023-01-08T05:43:39.240Z,25.65
2023-01-08T05:46:07.041Z,18.05
2023-01-08T05:48:37.005Z,18.30
2023-01-08T05:51:05.341Z,18.17
2023-01-08T05:53:33.014Z,31.25
2023-01-08T05:56:09.110Z,23.18
2023-01-08T05:58:37.156Z,15.53
2023-01-08T06:01:12.473Z,13.45
2023-01-08T06:06:09.474Z,14.18
2023-01-08T06:08:37.459Z,14.68
2023-01-08T06:11:08.356Z,15.28
2023-01-08T06:13:37.434Z,13.53
2023-01-08T06:16:05.831Z,15.88
2023-01-08T06:18:34.019Z,16.80
2023-01-08T06:21:03.971Z,17.73
2023-01-08T06:23:32.728Z,19.12
2023-01-08T06:26:03.601Z,24.90
2023-01-08T06:28:32.276Z,29.02
2023-01-08T06:31:02.818Z,26.80
2023-01-08T06:33:32.693Z,27.35
2023-01-08T06:36:02.208Z,30.20
2023-01-08T06:38:36.697Z,37.55
2023-01-08T06:41:06.275Z,40.77
2023-01-08T06:43:36.359Z,40.80
2023-01-08T06:46:08.314Z,35.20
2023-01-08T06:48:37.024Z,32.50
2023-01-08T06:51:05.859Z,28.10
2023-01-08T06:53:33.735Z,22.65
2023-01-08T06:56:04.100Z,20.43
2023-01-08T06:58:32.058Z,19.87
2023-01-08T07:00:59.716Z,21.93
2023-01-08T07:03:27.842Z,21.30
2023-01-08T07:05:56.658Z,22.75
2023-01-08T07:08:24.672Z,21.27
2023-01-08T07:10:52.437Z,20.72
2023-01-08T07:13:22.111Z,20.08
2023-01-08T07:15:51.317Z,19.73
2023-01-08T07:18:18.957Z,24.37
2023-01-08T07:20:48.896Z,24.20
2023-01-08T07:23:16.671Z,24.25
2023-01-08T07:25:44.282Z,22.35
2023-01-08T07:28:12.736Z,20.50
2023-01-08T07:30:40.732Z,18.05
2023-01-08T07:33:08.602Z,17.10
2023-01-08T07:35:37.951Z,18.65
2023-01-08T07:38:05.715Z,19.42
2023-01-08T07:40:33.318Z,19.80
2023-01-08T07:43:03.303Z,18.95
2023-01-08T07:45:32.241Z,19.00
2023-01-08T07:48:00.694Z,19.20
2023-01-08T07:50:28.821Z,19.65
2023-01-08T07:53:00.811Z,17.15
2023-01-08T07:55:31.020Z,15.28
2023-01-08T07:58:00.814Z,14.00
2023-01-08T08:00:28.512Z,14.38
2023-01-08T08:02:56.468Z,14.45
2023-01-08T08:05:24.561Z,14.38
2023-01-08T08:07:52.117Z,14.58
2023-01-08T08:10:19.738Z,15.20
2023-01-08T08:12:48.101Z,14.03
2023-01-08T08:15:18.869Z,14.38
2023-01-08T08:17:49.425Z,14.30
2023-01-08T08:20:17.595Z,13.55
2023-01-08T08:22:45.435Z,13.10
2023-01-08T08:25:16.679Z,13.53
2023-01-08T08:27:47.785Z,12.75
2023-01-08T08:30:15.382Z,13.05
2023-01-08T08:32:43.152Z,13.48
2023-01-08T08:35:10.829Z,13.72
2023-01-08T08:37:38.467Z,15.28
2023-01-08T08:40:25.026Z,14.60
2023-01-08T08:43:03.899Z,15.53
2023-01-08T08:45:36.704Z,15.53
2023-01-08T08:50:55.556Z,13.08
2023-01-08T08:53:28.216Z,14.18
2023-01-08T08:56:01.165Z,12.33
2023-01-08T08:58:30.944Z,11.20
2023-01-08T09:01:03.384Z,9.28
2023-01-08T09:03:31.343Z,9.73
2023-01-08T09:05:59.955Z,8.70
2023-01-08T09:08:29.018Z,9.40
2023-01-08T09:10:56.880Z,9.80
2023-01-08T09:13:24.186Z,11.65
2023-01-08T09:15:51.988Z,10.58
2023-01-08T09:18:20.748Z,10.25
2023-01-08T09:20:48.694Z,10.25
2023-01-08T09:23:16.377Z,10.68
2023-01-08T09:25:44.264Z,11.28
2023-01-08T09:28:12.637Z,11.63
2023-01-08T09:30:43.582Z,11.20
2023-01-08T09:33:13.300Z,12.78
2023-01-08T09:35:43.955Z,12.63
2023-01-08T09:38:12.314Z,12.73
2023-01-08T09:40:50.491Z,13.15
2023-01-08T09:43:21.383Z,21.50
2023-01-08T09:45:54.221Z,13.13
2023-01-08T09:48:29.547Z,12.03
2023-01-08T09:53:25.303Z,12.10
2023-01-08T09:56:09.126Z,12.15
2023-01-08T09:58:41.583Z,11.73
2023-01-08T10:01:14.236Z,11.30
2023-01-08T10:03:49.422Z,12.45
2023-01-08T10:11:16.087Z,9.05
2023-01-08T10:13:52.704Z,8.28
2023-01-08T10:16:31.000Z,9.15
2023-01-08T10:19:01.964Z,8.75
2023-01-08T10:21:39.651Z,9.50
2023-01-08T10:24:08.375Z,10.23
2023-01-08T10:26:38.908Z,9.83
2023-01-08T10:29:17.212Z,8.90
2023-01-08T10:31:54.657Z,9.05
2023-01-08T10:34:53.067Z,10.55
2023-01-08T10:37:33.986Z,9.50
2023-01-08T10:40:25.812Z,8.50
2023-01-08T10:42:56.891Z,10.58
2023-01-08T10:45:29.123Z,9.15
2023-01-08T10:48:00.720Z,12.88
2023-01-08T10:50:33.132Z,8.83
2023-01-08T10:53:04.824Z,10.03
2023-01-08T10:55:37.078Z,8.73
2023-01-08T10:58:13.306Z,10.03
2023-01-08T11:00:41.715Z,7.65
2023-01-08T11:03:29.103Z,5.92
2023-01-08T11:05:59.085Z,5.85
2023-01-08T11:08:26.862Z,7.42
2023-01-08T11:11:00.233Z,5.78
2023-01-08T11:13:29.658Z,6.17
2023-01-08T11:16:07.683Z,7.78
2023-01-08T11:18:48.610Z,7.22
2023-01-08T11:21:27.934Z,11.25
2023-01-08T11:24:18.396Z,6.20
2023-01-08T11:26:57.945Z,6.30
2023-01-08T11:29:57.469Z,9.48
2023-01-08T11:32:46.354Z,17.23
2023-01-08T11:35:36.163Z,8.90
2023-01-08T11:38:08.014Z,8.03
2023-01-08T11:41:03.030Z,9.23
2023-01-08T11:44:04.494Z,6.47
2023-01-08T11:46:53.796Z,7.22
2023-01-08T11:49:49.153Z,15.88
2023-01-08T11:52:49.948Z,13.72
2023-01-08T11:55:42.666Z,45.17
2023-01-08T11:58:59.684Z,78.15
2023-01-08T12:01:44.974Z,21.07
2023-01-08T12:04:45.803Z,13.15
2023-01-08T12:07:48.028Z,10.82
2023-01-08T12:10:37.947Z,9.23
2023-01-08T12:13:23.642Z,8.55
2023-01-08T12:16:03.024Z,7.80
2023-01-08T12:18:45.515Z,7.30
2023-01-08T12:21:42.877Z,6.85
2023-01-08T12:24:37.595Z,7.55
2023-01-08T12:27:48.414Z,7.45
2023-01-08T12:30:24.181Z,7.92
2023-01-08T12:35:53.717Z,7.08
2023-01-08T12:38:26.470Z,10.10
2023-01-08T12:41:08.736Z,9.05
2023-01-08T12:44:03.220Z,8.63
2023-01-08T12:46:37.838Z,7.83
2023-01-08T12:49:07.808Z,8.20
2023-01-08T12:52:01.997Z,9.90
2023-01-08T12:54:52.078Z,9.28
2023-01-08T12:57:31.735Z,9.68
2023-01-08T13:00:21.723Z,7.95
2023-01-08T13:03:03.083Z,7.90
2023-01-08T13:05:37.162Z,8.35
2023-01-08T13:08:25.551Z,8.60
2023-01-08T13:10:55.604Z,7.70
2023-01-08T13:13:33.013Z,8.13
2023-01-08T13:16:16.721Z,7.62
2023-01-08T13:18:59.908Z,6.80
2023-01-08T13:21:44.292Z,7.37
2023-01-08T13:24:37.745Z,9.08
2023-01-08T13:27:23.258Z,7.08
2023-01-08T13:32:46.617Z,7.90
2023-01-08T13:35:25.821Z,7.50
2023-01-08T13:38:15.053Z,7.50
2023-01-08T13:40:50.688Z,7.30
2023-01-08T13:43:34.478Z,8.55
2023-01-08T13:46:10.623Z,8.18
2023-01-08T13:49:03.328Z,27.35
2023-01-08T13:51:44.790Z,51.08
2023-01-08T13:54:25.640Z,15.13
2023-01-08T13:56:58.502Z,9.28
2023-01-08T13:59:45.615Z,8.30
2023-01-08T14:02:27.444Z,7.80
2023-01-08T14:04:57.554Z,6.80
2023-01-08T14:07:26.622Z,7.30
2023-01-08T14:09:56.602Z,6.83
2023-01-08T14:12:25.222Z,7.85
2023-01-08T14:14:59.117Z,7.90
2023-01-08T14:17:31.877Z,10.55
2023-01-08T14:20:07.417Z,10.28
2023-01-08T14:22:37.123Z,9.35
2023-01-08T14:25:08.426Z,10.70
2023-01-08T14:27:42.964Z,12.55
2023-01-08T14:30:17.685Z,14.28
2023-01-08T14:32:47.440Z,17.70
2023-01-08T14:35:19.532Z,25.08
2023-01-08T14:37:47.039Z,26.90
2023-01-08T14:40:18.863Z,23.52
2023-01-08T14:42:48.723Z,24.57
2023-01-08T14:45:24.092Z,55.48
2023-01-08T14:48:18.440Z,78.35
2023-01-08T14:51:03.742Z,70.05
2023-01-08T14:53:36.339Z,69.72
2023-01-08T14:56:28.266Z,68.97
2023-01-08T14:58:58.020Z,78.40
2023-01-08T15:01:33.803Z,76.35
2023-01-08T15:04:20.450Z,77.55
2023-01-08T15:06:50.836Z,78.60
2023-01-08T15:09:32.061Z,71.80
2023-01-08T15:12:03.315Z,66.40
2023-01-08T15:14:36.388Z,61.45
2023-01-08T15:17:15.945Z,61.00
2023-01-08T15:19:52.453Z,65.12
2023-01-08T15:22:25.161Z,72.50
2023-01-08T15:25:02.353Z,66.30
2023-01-08T15:27:40.212Z,65.40
2023-01-08T15:30:39.749Z,85.90
2023-01-08T15:33:19.598Z,103.42
2023-01-08T15:35:48.668Z,113.57
2023-01-08T15:38:20.120Z,117.97
2023-01-08T15:40:48.474Z,109.50
2023-01-08T15:43:18.479Z,98.12
2023-01-08T15:45:48.195Z,84.85
2023-01-08T15:48:16.096Z,86.02
2023-01-08T15:50:45.095Z,71.35
2023-01-08T15:53:24.424Z,50.28
2023-01-08T15:55:52.138Z,39.63
2023-01-08T15:58:19.770Z,28.40
2023-01-08T16:00:47.411Z,20.15
2023-01-08T16:03:15.588Z,14.38
2023-01-08T16:05:44.755Z,14.33
2023-01-08T16:08:12.395Z,13.08
2023-01-08T16:10:40.079Z,14.13
2023-01-08T16:13:08.712Z,13.78
2023-01-08T16:15:39.380Z,14.80
2023-01-08T16:18:07.147Z,13.80
2023-01-08T16:20:34.808Z,15.13
2023-01-08T16:23:03.151Z,16.10
2023-01-08T16:25:32.624Z,16.77
2023-01-08T16:28:02.747Z,19.27
2023-01-08T16:30:30.506Z,22.30
2023-01-08T16:32:58.291Z,23.57
2023-01-08T16:35:26.239Z,18.70
2023-01-08T16:37:53.632Z,18.30
2023-01-08T16:40:21.256Z,17.85
2023-01-08T16:42:48.892Z,16.45
2023-01-08T16:45:17.194Z,15.28
2023-01-08T16:47:45.612Z,17.37
2023-01-08T16:50:13.386Z,19.77
2023-01-08T16:52:41.150Z,18.57
2023-01-08T16:55:10.425Z,17.52
2023-01-08T16:57:39.159Z,17.07
2023-01-08T17:00:08.608Z,16.12
2023-01-08T17:02:37.469Z,16.97
2023-01-08T17:05:06.824Z,17.10
2023-01-08T17:07:34.793Z,17.92
2023-01-08T17:10:03.274Z,20.20
2023-01-08T17:12:31.433Z,23.40
2023-01-08T17:14:59.425Z,25.23
2023-01-08T17:17:27.167Z,25.12
2023-01-08T17:19:54.991Z,22.48
2023-01-08T17:22:23.795Z,20.65
2023-01-08T17:24:51.577Z,20.82
2023-01-08T17:27:19.254Z,24.32
2023-01-08T17:29:46.937Z,22.60
2023-01-08T17:32:14.550Z,20.80
2023-01-08T17:34:42.322Z,21.07
2023-01-08T17:37:10.488Z,20.10
2023-01-08T17:39:38.761Z,18.48
2023-01-08T17:42:24.992Z,17.52
2023-01-08T17:44:55.172Z,17.73
2023-01-08T17:47:24.846Z,17.65
2023-01-08T17:49:57.905Z,18.30
2023-01-08T17:52:26.236Z,19.25
2023-01-08T17:54:54.134Z,18.77
2023-01-08T17:57:22.144Z,18.65
2023-01-08T17:59:49.907Z,18.50
2023-01-08T18:02:18.049Z,19.52
2023-01-08T18:04:46.034Z,20.05
2023-01-08T18:07:13.976Z,20.80
2023-01-08T18:09:41.720Z,20.72
2023-01-08T18:12:09.546Z,21.95
2023-01-08T18:14:38.546Z,23.50
2023-01-08T18:17:06.181Z,21.90
2023-01-08T18:19:34.144Z,22.45
2023-01-08T18:22:01.977Z,21.05
2023-01-08T18:24:29.848Z,24.77
2023-01-08T18:26:58.639Z,25.23
2023-01-08T18:29:26.962Z,21.80
2023-01-08T18:31:55.388Z,22.58
2023-01-08T18:34:23.405Z,24.07
2023-01-08T18:36:51.283Z,21.73
2023-01-08T18:39:19.191Z,20.17
2023-01-08T18:42:04.952Z,20.27
2023-01-08T18:47:00.007Z,19.00
2023-01-08T18:49:27.696Z,21.15
2023-01-08T18:51:55.469Z,22.42
2023-01-08T18:54:23.417Z,19.98
2023-01-08T18:56:51.278Z,21.07
2023-01-08T18:59:19.199Z,20.75
2023-01-08T19:01:48.346Z,22.17
2023-01-08T19:04:18.207Z,24.77
2023-01-08T19:06:47.188Z,22.13
2023-01-08T19:09:16.896Z,20.40
2023-01-08T19:11:45.024Z,19.98
2023-01-08T19:14:14.062Z,19.42
2023-01-08T19:16:44.024Z,17.45
2023-01-08T19:19:11.943Z,17.17
2023-01-08T19:21:41.629Z,17.02
2023-01-08T19:24:09.602Z,17.27
2023-01-08T19:26:38.203Z,19.67
2023-01-08T19:29:06.277Z,18.77
2023-01-08T19:31:34.882Z,19.82
2023-01-08T19:34:04.661Z,20.08
2023-01-08T19:36:33.607Z,19.30
2023-01-08T19:39:10.711Z,22.20
2023-01-08T19:41:58.000Z,22.87
2023-01-08T19:44:31.650Z,22.22
2023-01-08T19:46:59.709Z,19.70
2023-01-08T19:49:28.249Z,20.57
2023-01-08T19:51:59.146Z,21.07
2023-01-08T19:54:29.485Z,18.23
2023-01-08T19:56:57.535Z,17.80
2023-01-08T19:59:27.809Z,15.63
2023-01-08T20:01:55.880Z,16.52
2023-01-08T20:04:24.433Z,15.60
2023-01-08T20:06:52.309Z,16.32
2023-01-08T20:09:20.230Z,17.05
2023-01-08T20:11:48.337Z,19.35
2023-01-08T20:14:19.277Z,19.20
2023-01-08T20:16:47.057Z,16.80
2023-01-08T20:19:15.069Z,14.87
2023-01-08T20:21:45.065Z,14.90
2023-01-08T20:24:14.576Z,13.55
2023-01-08T20:26:44.443Z,15.60
2023-01-08T20:29:14.633Z,14.05
2023-01-08T20:31:45.261Z,14.87
2023-01-08T20:34:15.926Z,15.83
2023-01-08T20:36:44.856Z,17.05
2023-01-08T20:39:16.640Z,17.73
2023-01-08T20:41:50.429Z,17.17
2023-01-08T20:44:16.086Z,17.90
2023-01-08T20:46:45.433Z,16.95
2023-01-08T20:49:17.187Z,14.98
2023-01-08T20:51:54.316Z,14.47
2023-01-08T20:54:16.988Z,13.68
2023-01-08T20:56:48.791Z,12.68
2023-01-08T20:59:16.868Z,14.80
2023-01-08T21:01:44.786Z,14.68
2023-01-08T21:04:12.864Z,14.90
2023-01-08T21:06:43.999Z,15.48
2023-01-08T21:09:13.822Z,15.90
2023-01-08T21:11:48.650Z,16.65
2023-01-08T21:14:18.887Z,17.87
2023-01-08T21:16:51.086Z,18.50
2023-01-08T21:19:20.012Z,17.77
2023-01-08T21:21:48.777Z,18.12
2023-01-08T21:24:23.738Z,19.80
2023-01-08T21:26:51.663Z,20.52
2023-01-08T21:29:26.864Z,21.45
2023-01-08T21:31:54.837Z,29.25
2023-01-08T21:34:23.504Z,28.85
2023-01-08T21:36:54.793Z,32.30
2023-01-08T21:39:24.438Z,31.55
2023-01-08T21:42:10.971Z,30.20
2023-01-08T21:45:00.608Z,31.17
2023-01-08T21:47:34.467Z,28.23
2023-01-08T21:50:03.612Z,22.82
2023-01-08T21:52:50.255Z,21.35
2023-01-08T21:55:18.408Z,20.57
2023-01-08T21:57:52.945Z,18.85
2023-01-08T22:00:28.669Z,19.20
2023-01-08T22:02:56.677Z,21.60
2023-01-08T22:05:26.313Z,27.85
2023-01-08T22:07:55.940Z,27.20
2023-01-08T22:10:23.977Z,28.98
2023-01-08T22:12:51.866Z,31.62
2023-01-08T22:15:19.849Z,46.92
2023-01-08T22:17:47.618Z,34.88
2023-01-08T22:20:16.215Z,34.15
2023-01-08T22:22:45.942Z,38.60
2023-01-08T22:25:13.837Z,33.55
2023-01-08T22:27:41.979Z,32.38
2023-01-08T22:30:11.050Z,33.38
2023-01-08T22:32:39.018Z,34.48
2023-01-08T22:35:07.289Z,34.83
2023-01-08T22:37:36.382Z,35.45
2023-01-08T22:40:05.371Z,31.70
2023-01-08T22:42:33.334Z,32.10
2023-01-08T22:45:01.539Z,34.08
2023-01-08T22:47:29.579Z,27.07
2023-01-08T22:49:57.472Z,24.77
2023-01-08T22:52:25.327Z,25.68
2023-01-08T22:54:54.993Z,26.17
2023-01-08T22:57:23.075Z,21.80
2023-01-08T22:59:52.012Z,17.70
2023-01-08T23:02:22.015Z,15.05
2023-01-08T23:04:53.954Z,14.47
2023-01-08T23:07:22.062Z,14.50
2023-01-08T23:09:50.313Z,15.72
2023-01-08T23:12:18.340Z,13.58
2023-01-08T23:14:46.641Z,13.75
2023-01-08T23:17:14.761Z,13.70
2023-01-08T23:19:42.644Z,14.15
2023-01-08T23:22:10.823Z,13.78
2023-01-08T23:24:39.089Z,12.65
2023-01-08T23:27:07.262Z,15.08
2023-01-08T23:29:35.514Z,14.87
2023-01-08T23:32:03.745Z,14.87
2023-01-08T23:34:32.135Z,16.73
2023-01-08T23:37:00.114Z,19.02
2023-01-08T23:39:28.556Z,17.02
2023-01-08T23:41:56.683Z,19.10
2023-01-08T23:44:24.640Z,18.40
2023-01-08T23:46:52.534Z,16.97
2023-01-08T23:49:20.611Z,17.02
2023-01-08T23:51:49.146Z,16.90
2023-01-08T23:54:17.357Z,16.23
2023-01-08T23:56:45.473Z,18.25
2023-01-08T23:59:13.620Z,19.05
